Adelanto, California
Current Conditions -  °F | °C
As of 8:15 PM on Sunday 23 Nov 2014 (Local Time) from KVCV Reporting Station
Clear Clear  
Wind Chill: 43°   Ceiling: Unl
Heat Index: 43°   Visibility: 10mi
Dew Point:   Wind: 3mph
Humidity: 23%   Direction: 170°S
Pressure: 30.25"   Gusts: NA
Location:  34.58°N, 117.41°W
Report Text: KVCV 240415Z AUTO 17003KT 10SM CLR 06/M14 A3025 RMK AO2
Loading
Personal Weather Stations






























Interactive Weather Map New forecast layout! Learn more

10-Day Weather Forecast

Advertisements
Track Severe Weather on mobile